Terminal Aerodrome Forecast
Issued by NWS

Home | Current Version | Previous Version | Text Only | Print | Product List | Glossary Off
Versions: 1 2 3 4 5 6 7 8 9 10 11 12 13 14 15

000
FTUS43 KGRB 030520
TAFATW
TAF
KATW 030520Z 0306/0406 17006KT P6SM SKC
     FM031100 24007KT P6SM FEW120 SCT200
     FM031600 25010G16KT P6SM SCT050 BKN120
     FM032000 24015G21KT P6SM VCSH BKN050
      TEMPO 0321/0401 3SM -TSRA BKN040CB
     FM040100 31007KT P6SM VCSH SCT040 BKN100=

USA.gov is the U.S. government's official web portal to all federal, state and local government web resources and services.